Central Nyack, New York
Current Conditions -  °F | °C
As of 9:56 AM on Monday 24 Nov 2014 (Local Time) from KHPN Reporting Station
Haze Haze  
Wind Chill: 59°   Ceiling: 200
Heat Index: 59°   Visibility: 1.2mi
Dew Point: 58°   Wind: 7mph
Humidity: 96%   Direction: 160°SSE
Pressure: 29.68"   Gusts: 17mph
Location:  41.0938°N, 73.9254°W
Report Text: KHPN 241456Z 16006G15KT 1 1/4SM BR VV002 15/14 A2968 RMK AO2 SLP053 60001 T01500144 58007
Loading
Personal Weather Stations






























Interactive Weather Map New forecast layout! Learn more

10-Day Weather Forecast

Advertisements
Track Severe Weather on mobile